RJCC

New Chitose Airport

Airport
ICAO code
RJCC
IATA Code
CTS
Summary
ICAO Region
APAC
ICAO Territory
Location

Chitose, Hokkaido

Serving
Sapporo Region
Elevation
70 ft
Coordinates
42° 46' 29" N , 141° 41' 25" E
KCC
Metar
Observation
RJCC 042230Z 16001KT 9999 PRFG FEW030 M17/M19 Q1019 RMK 1CU030 A3011 PRFG NE-E IS FREEZING
Station
Chitose Ab
Date/Time
2023-02-04 23:30:00
Wind direction
160°
Wind speed
01 kts
Lowest cloud amount
few clouds
Temperature
-17°C
Dew point
-19°C
Humidity
84%
QNH
1019 hPa
Weather condition
fog

New Chitose Airport serves the Sapporo metropolitan area. It is adjacent to the former Chitose civil airport which became a Japan Self Defence Force (JSDF) airbase in 1988. The pair of parallel runways at each aerodrome are in almost identical alignment but carry designations which vary by 10 degrees. ATC service for both aerodromes is provided by the JSDF.

Climatology

Humid continental climate (Köppen climate classification Dfa) - characterized by four seasons: cold, windy, snowy winters, mild springs, hot, humid summers, and crisp and relatively short autumns. Precipitation reaches its lowest in January and February and peaks in summer and latter half of spring.

Runways

Designator Length Width Surface Rops
01L/19R 2999 61 ASP Yes/Yes
01R/19L 2999 61 ASP Yes/Yes

SKYbrary Partners:

Safety knowledge contributed by: